createdAt,value
2022-09-28T00:01:09.095Z,99412.81
2022-09-28T00:03:35.916Z,99413.66
2022-09-28T00:06:03.807Z,99415.31
2022-09-28T00:08:30.712Z,99415.31
2022-09-28T00:10:57.779Z,99408.06
2022-09-28T00:13:25.669Z,99409.75
2022-09-28T00:16:03.956Z,99413.28
2022-09-28T00:18:30.964Z,99410.38
2022-09-28T00:21:02.248Z,99409.56
2022-09-28T00:23:28.906Z,99403.31
2022-09-28T00:25:55.423Z,99404.16
2022-09-28T00:28:22.080Z,99405.63
2022-09-28T00:30:55.059Z,99406.47
2022-09-28T00:33:21.559Z,99394.81
2022-09-28T00:35:55.150Z,99399.19
2022-09-28T00:38:21.701Z,99388.19
2022-09-28T00:40:48.351Z,99394.25
2022-09-28T00:43:18.827Z,99391.53
2022-09-28T00:45:49.914Z,99392.38
2022-09-28T00:48:17.753Z,99391.38
2022-09-28T00:50:45.370Z,99392.38
2022-09-28T00:53:18.826Z,99394.06
2022-09-28T00:55:48.115Z,99396.78
2022-09-28T00:58:20.583Z,99396.56
2022-09-28T01:00:48.231Z,99392.84
2022-09-28T01:03:16.064Z,99390.97
2022-09-28T01:05:45.109Z,99389.13
2022-09-28T01:08:13.074Z,99386.22
2022-09-28T01:10:40.644Z,99389.75
2022-09-28T01:13:07.247Z,99385.41
2022-09-28T01:15:41.530Z,99388.09
2022-09-28T01:18:15.349Z,99388.72
2022-09-28T01:21:03.074Z,99376.22
2022-09-28T01:23:43.165Z,99377.91
2022-09-28T01:26:45.667Z,99381.63
2022-09-28T01:29:19.503Z,99379.59
2022-09-28T01:31:51.156Z,99370.47
2022-09-28T01:34:25.076Z,99376.06
2022-09-28T01:36:55.871Z,99380.63
2022-09-28T01:39:29.122Z,99376.91
2022-09-28T01:41:59.841Z,99375.03
2022-09-28T01:44:30.723Z,99375.88
2022-09-28T01:46:59.151Z,99376.72
2022-09-28T01:49:31.288Z,99371.94
2022-09-28T01:52:04.018Z,99368.22
2022-09-28T01:54:36.297Z,99373.41
2022-09-28T01:57:09.318Z,99368.00
2022-09-28T01:59:41.736Z,99361.56
2022-09-28T02:02:14.442Z,99360.56
2022-09-28T02:04:46.009Z,99366.81
2022-09-28T02:07:18.257Z,99364.94
2022-09-28T02:09:49.466Z,99363.06
2022-09-28T02:12:21.042Z,99360.56
2022-09-28T02:14:54.583Z,99364.28
2022-09-28T02:17:20.946Z,99367.19
2022-09-28T02:19:47.860Z,99359.72
2022-09-28T02:22:24.683Z,99363.25
2022-09-28T02:24:55.374Z,99362.22
2022-09-28T02:27:29.206Z,99360.38
2022-09-28T02:29:57.110Z,99359.31
2022-09-28T02:32:26.438Z,99357.47
2022-09-28T02:34:53.121Z,99357.66
2022-09-28T02:37:19.634Z,99357.66
2022-09-28T02:39:46.149Z,99348.72
2022-09-28T02:42:21.243Z,99354.75
2022-09-28T02:45:04.746Z,99353.91
2022-09-28T02:47:44.404Z,99349.34
2022-09-28T02:50:19.750Z,99350.19
2022-09-28T02:53:15.971Z,99351.03
2022-09-28T02:55:56.168Z,99347.47
2022-09-28T02:58:37.849Z,99348.50
2022-09-28T03:01:19.621Z,99342.28
2022-09-28T03:03:50.718Z,99344.31
2022-09-28T03:06:26.624Z,99334.72
2022-09-28T03:09:00.328Z,99337.44
2022-09-28T03:11:31.029Z,99330.13
2022-09-28T03:13:58.332Z,99328.28
2022-09-28T03:16:26.405Z,99330.13
2022-09-28T03:18:52.928Z,99325.78
2022-09-28T03:21:19.439Z,99325.13
2022-09-28T03:23:45.961Z,99322.63
2022-09-28T03:26:12.457Z,99324.50
2022-09-28T03:28:39.521Z,99323.66
2022-09-28T03:31:06.823Z,99315.72
2022-09-28T03:33:35.030Z,99311.31
2022-09-28T03:36:01.836Z,99317.56
2022-09-28T03:38:28.393Z,99320.09
2022-09-28T03:40:56.114Z,99313.00
2022-09-28T03:43:23.552Z,99313.00
2022-09-28T03:45:53.986Z,99309.66
2022-09-28T03:48:28.706Z,99309.00
2022-09-28T03:51:01.177Z,99304.63
2022-09-28T03:53:27.918Z,99301.28
2022-09-28T03:55:54.518Z,99306.25
2022-09-28T03:58:22.340Z,99307.63
2022-09-28T04:00:49.390Z,99309.88
2022-09-28T04:03:15.933Z,99308.56
2022-09-28T04:05:48.726Z,99302.91
2022-09-28T04:08:16.551Z,99313.47
2022-09-28T04:10:43.339Z,99308.41
2022-09-28T04:13:09.929Z,99300.69
2022-09-28T04:15:36.461Z,99304.78
2022-09-28T04:18:03.063Z,99301.81
2022-09-28T04:20:29.629Z,99306.53
2022-09-28T04:22:58.012Z,99296.75
2022-09-28T04:25:26.010Z,99295.09
2022-09-28T04:27:52.526Z,99297.31
2022-09-28T04:30:19.146Z,99302.28
2022-09-28T04:32:46.184Z,99291.81
2022-09-28T04:35:12.746Z,99286.81
2022-09-28T04:37:39.254Z,99280.72
2022-09-28T04:40:06.760Z,99289.22
2022-09-28T04:42:36.396Z,99285.88
2022-09-28T04:45:03.076Z,99288.59
2022-09-28T04:47:29.617Z,99279.81
2022-09-28T04:49:56.470Z,99287.06
2022-09-28T04:52:23.090Z,99287.28
2022-09-28T04:54:49.648Z,99289.97
2022-09-28T04:57:16.312Z,99292.69
2022-09-28T04:59:44.826Z,99291.00
2022-09-28T05:02:11.526Z,99290.16
2022-09-28T05:04:38.181Z,99292.19
2022-09-28T05:07:04.681Z,99293.03
2022-09-28T05:09:34.925Z,99301.13
2022-09-28T05:12:04.398Z,99302.81
2022-09-28T05:14:30.920Z,99299.09
2022-09-28T05:16:58.985Z,99307.00
2022-09-28T05:19:25.559Z,99307.00
2022-09-28T05:21:52.143Z,99306.81
2022-09-28T05:24:18.694Z,99309.34
2022-09-28T05:26:45.254Z,99301.25
2022-09-28T05:29:11.791Z,99307.50
2022-09-28T05:31:38.335Z,99308.31
2022-09-28T05:34:06.625Z,99300.88
2022-09-28T05:36:33.337Z,99295.28
2022-09-28T05:38:59.960Z,99298.81
2022-09-28T05:41:26.532Z,99286.97
2022-09-28T05:43:53.039Z,99278.88
2022-09-28T05:46:19.579Z,99284.28
2022-09-28T05:48:46.150Z,99285.78
2022-09-28T05:51:13.966Z,99286.63
2022-09-28T05:53:40.572Z,99290.81
2022-09-28T05:56:07.097Z,99290.63
2022-09-28T05:58:34.007Z,99288.75
2022-09-28T06:01:00.665Z,99285.69
2022-09-28T06:03:27.388Z,99278.19
2022-09-28T06:05:54.216Z,99277.84
2022-09-28T06:08:22.377Z,99279.19
2022-09-28T06:10:48.903Z,99282.16
2022-09-28T06:13:15.482Z,99285.31
2022-09-28T06:15:42.549Z,99280.34
2022-09-28T06:18:11.431Z,99273.53
2022-09-28T06:20:39.535Z,99278.56
2022-09-28T06:23:06.365Z,99275.50
2022-09-28T06:25:34.383Z,99269.53
2022-09-28T06:28:03.269Z,99273.13
2022-09-28T06:30:32.518Z,99261.56
2022-09-28T06:33:01.137Z,99273.09
2022-09-28T06:35:29.784Z,99263.19
2022-09-28T06:37:57.105Z,99272.00
2022-09-28T06:40:24.153Z,99268.31
2022-09-28T06:42:59.861Z,99273.81
2022-09-28T06:45:28.050Z,99268.84
2022-09-28T06:47:56.202Z,99264.72
2022-09-28T06:50:22.771Z,99268.53
2022-09-28T06:52:53.122Z,99264.66
2022-09-28T06:55:20.032Z,99275.78
2022-09-28T06:57:47.053Z,99262.75
2022-09-28T07:00:15.752Z,99263.88
2022-09-28T07:02:42.330Z,99261.00
2022-09-28T07:05:12.638Z,99265.22
2022-09-28T07:07:39.099Z,99260.34
2022-09-28T07:10:06.649Z,99262.88
2022-09-28T07:12:35.062Z,99256.44
2022-09-28T07:15:01.632Z,99258.97
2022-09-28T07:17:29.560Z,99252.50
2022-09-28T07:19:56.445Z,99261.09
2022-09-28T07:22:35.975Z,99248.16
2022-09-28T07:25:04.963Z,99244.22
2022-09-28T07:27:31.943Z,99248.38
2022-09-28T07:29:58.718Z,99249.22
2022-09-28T07:32:26.985Z,99251.09
2022-09-28T07:34:58.783Z,99249.63
2022-09-28T07:37:25.815Z,99250.66
2022-09-28T07:39:52.331Z,99250.84
2022-09-28T07:42:19.048Z,99254.81
2022-09-28T07:44:45.527Z,99255.84
2022-09-28T07:47:12.251Z,99260.44
2022-09-28T07:49:38.763Z,99255.00
2022-09-28T07:52:06.600Z,99254.16
2022-09-28T07:54:33.099Z,99257.53
2022-09-28T07:56:59.638Z,99252.72
2022-09-28T07:59:26.158Z,99256.09
2022-09-28T08:01:52.815Z,99257.78
2022-09-28T08:04:19.481Z,99256.53
2022-09-28T08:06:46.151Z,99260.06
2022-09-28T08:09:14.050Z,99265.06
2022-09-28T08:11:40.922Z,99265.72
2022-09-28T08:14:07.422Z,99265.31
2022-09-28T08:16:34.044Z,99264.28
2022-09-28T08:19:00.701Z,99267.63
2022-09-28T08:21:27.256Z,99278.06
2022-09-28T08:23:53.777Z,99276.81
2022-09-28T08:26:21.804Z,99267.44
2022-09-28T08:28:48.774Z,99266.41
2022-09-28T08:31:15.613Z,99271.44
2022-09-28T08:33:42.552Z,99278.34
2022-09-28T08:36:10.022Z,99278.19
2022-09-28T08:38:36.520Z,99280.28
2022-09-28T08:41:11.557Z,99281.59
2022-09-28T08:43:54.690Z,99281.16
2022-09-28T08:46:27.014Z,99282.88
2022-09-28T08:49:23.631Z,99278.28
2022-09-28T08:51:51.094Z,99281.22
2022-09-28T08:54:30.450Z,99274.38
2022-09-28T08:57:01.859Z,99284.41
2022-09-28T08:59:46.575Z,99272.28
2022-09-28T09:02:18.287Z,99273.75
2022-09-28T09:04:45.059Z,99272.50
2022-09-28T09:07:48.895Z,99279.41
2022-09-28T09:10:35.744Z,99269.13
2022-09-28T09:13:18.367Z,99272.88
2022-09-28T09:15:53.525Z,99269.50
2022-09-28T09:18:31.260Z,99272.41
2022-09-28T09:20:59.215Z,99273.63
2022-09-28T09:23:35.806Z,99276.97
2022-09-28T09:26:09.875Z,99274.00
2022-09-28T09:28:52.483Z,99271.06
2022-09-28T09:31:31.314Z,99275.59
2022-09-28T09:34:12.182Z,99267.19
2022-09-28T09:36:50.925Z,99266.72
2022-09-28T09:39:32.635Z,99266.69
2022-09-28T09:42:14.946Z,99264.75
2022-09-28T09:44:55.849Z,99265.53
2022-09-28T09:47:28.777Z,99270.34
2022-09-28T09:50:02.868Z,99271.81
2022-09-28T09:52:41.067Z,99265.47
2022-09-28T09:55:16.426Z,99271.53
2022-09-28T09:57:48.432Z,99269.00
2022-09-28T10:00:16.576Z,99271.44
2022-09-28T10:02:47.291Z,99258.13
2022-09-28T10:05:22.346Z,99261.00
2022-09-28T10:07:55.673Z,99261.16
2022-09-28T10:10:27.371Z,99265.94
2022-09-28T10:12:54.516Z,99259.03
2022-09-28T10:15:24.587Z,99265.69
2022-09-28T10:17:53.943Z,99267.34
2022-09-28T10:20:20.641Z,99267.34
2022-09-28T10:22:47.899Z,99267.13
2022-09-28T10:25:15.644Z,99271.16
2022-09-28T10:27:45.076Z,99280.38
2022-09-28T10:30:16.834Z,99273.50
2022-09-28T10:32:45.662Z,99275.13
2022-09-28T10:35:21.601Z,99266.75
2022-09-28T10:37:51.865Z,99271.31
2022-09-28T10:40:42.017Z,99270.63
2022-09-28T10:43:23.856Z,99278.13
2022-09-28T10:46:01.286Z,99265.13
2022-09-28T10:48:30.942Z,99271.56
2022-09-28T10:51:00.628Z,99270.44
2022-09-28T10:53:27.150Z,99274.38
2022-09-28T10:55:59.901Z,99277.50
2022-09-28T10:58:29.439Z,99272.88
2022-09-28T11:01:07.679Z,99264.63
2022-09-28T11:03:38.283Z,99274.41
2022-09-28T11:06:08.022Z,99268.41
2022-09-28T11:08:38.187Z,99268.78
2022-09-28T11:11:08.723Z,99270.00
2022-09-28T11:13:46.828Z,99271.69
2022-09-28T11:16:23.385Z,99277.13
2022-09-28T11:18:50.210Z,99268.31
2022-09-28T11:21:25.347Z,99270.47
2022-09-28T11:23:57.099Z,99274.72
2022-09-28T11:26:24.241Z,99279.34
2022-09-28T11:28:52.187Z,99281.91
2022-09-28T11:31:26.128Z,99277.72
2022-09-28T11:34:03.676Z,99276.06
2022-09-28T11:36:57.324Z,99275.44
2022-09-28T11:39:33.215Z,99281.22
2022-09-28T11:42:17.135Z,99286.03
2022-09-28T11:44:46.095Z,99286.72
2022-09-28T11:47:40.756Z,99283.63
2022-09-28T11:50:21.453Z,99283.63
2022-09-28T11:52:57.462Z,99286.34
2022-09-28T11:55:27.170Z,99289.53
2022-09-28T11:58:00.915Z,99294.81
2022-09-28T12:00:28.710Z,99294.06
2022-09-28T12:02:59.270Z,99297.47
2022-09-28T12:05:30.009Z,99289.94
2022-09-28T12:08:02.191Z,99292.03
2022-09-28T12:10:38.767Z,99292.50
2022-09-28T12:13:11.816Z,99289.78
2022-09-28T12:16:15.030Z,99288.09
2022-09-28T12:18:41.663Z,99294.59
2022-09-28T12:21:19.014Z,99288.56
2022-09-28T12:23:48.581Z,99285.03
2022-09-28T12:26:34.645Z,99284.84
2022-09-28T12:29:11.412Z,99293.03
2022-09-28T12:31:44.494Z,99291.81
2022-09-28T12:34:11.074Z,99287.88
2022-09-28T12:36:52.741Z,99288.53
2022-09-28T12:39:56.404Z,99293.56
2022-09-28T12:42:33.319Z,99291.91
2022-09-28T12:45:17.293Z,99288.56
2022-09-28T12:48:10.281Z,99293.41
2022-09-28T12:50:54.538Z,99291.09
2022-09-28T12:53:39.899Z,99290.72
2022-09-28T12:56:16.812Z,99299.94
2022-09-28T12:58:57.657Z,99293.25
2022-09-28T13:01:44.776Z,99288.88
2022-09-28T13:04:33.171Z,99288.72
2022-09-28T13:07:04.998Z,99291.66
2022-09-28T13:09:45.650Z,99289.97
2022-09-28T13:12:26.242Z,99286.19
2022-09-28T13:15:29.257Z,99293.94
2022-09-28T13:18:03.393Z,99298.13
2022-09-28T13:20:41.457Z,99294.09
2022-09-28T13:23:21.477Z,99287.78
2022-09-28T13:25:55.116Z,99291.50
2022-09-28T13:28:27.312Z,99288.09
2022-09-28T13:30:55.663Z,99291.63
2022-09-28T13:33:30.571Z,99298.91
2022-09-28T13:35:57.260Z,99300.19
2022-09-28T13:38:43.455Z,99289.75
2022-09-28T13:41:13.664Z,99297.69
2022-09-28T13:43:55.802Z,99294.09
2022-09-28T13:46:30.004Z,99289.66
2022-09-28T13:49:05.964Z,99292.34
2022-09-28T13:51:45.545Z,99296.06
2022-09-28T13:54:20.615Z,99297.88
2022-09-28T13:56:53.496Z,99296.25
2022-09-28T13:59:24.830Z,99297.28
2022-09-28T14:01:56.432Z,99303.34
2022-09-28T14:04:24.974Z,99309.22
2022-09-28T14:06:55.791Z,99308.75
2022-09-28T14:09:44.370Z,99312.91
2022-09-28T14:12:44.923Z,99311.19
2022-09-28T14:15:41.679Z,99320.38
2022-09-28T14:18:22.133Z,99323.47
2022-09-28T14:21:00.147Z,99317.88
2022-09-28T14:23:59.012Z,99328.84
2022-09-28T14:26:53.317Z,99324.28
2022-09-28T14:29:26.686Z,99329.28
2022-09-28T14:31:55.805Z,99335.34
2022-09-28T14:34:31.716Z,99334.72
2022-09-28T14:36:59.494Z,99334.72
2022-09-28T14:39:29.246Z,99338.75
2022-09-28T14:41:56.192Z,99345.72
2022-09-28T14:44:23.182Z,99346.53
2022-09-28T14:47:10.036Z,99350.13
2022-09-28T14:49:46.706Z,99352.41
2022-09-28T14:52:19.241Z,99352.50
2022-09-28T14:54:51.433Z,99348.31
2022-09-28T14:57:21.747Z,99351.25
2022-09-28T14:59:48.802Z,99353.38
2022-09-28T15:02:36.032Z,99351.09
2022-09-28T15:05:14.532Z,99355.06
2022-09-28T15:07:45.897Z,99353.59
2022-09-28T15:10:27.669Z,99361.84
2022-09-28T15:12:55.287Z,99355.38
2022-09-28T15:15:30.547Z,99355.19
2022-09-28T15:18:09.115Z,99353.97
2022-09-28T15:20:40.886Z,99357.34
2022-09-28T15:23:24.738Z,99356.94
2022-09-28T15:25:52.182Z,99367.88
2022-09-28T15:28:20.635Z,99366.25
2022-09-28T15:30:47.209Z,99365.25
2022-09-28T15:33:24.872Z,99368.63
2022-09-28T15:35:58.747Z,99369.06
2022-09-28T15:38:25.540Z,99381.06
2022-09-28T15:40:52.201Z,99377.50
2022-09-28T15:43:25.283Z,99380.47
2022-09-28T15:45:57.693Z,99387.00
2022-09-28T15:48:30.015Z,99398.72
2022-09-28T15:53:58.822Z,99401.25
2022-09-28T15:56:26.015Z,99402.50
2022-09-28T15:59:09.846Z,99403.56
2022-09-28T16:01:37.695Z,99397.50
2022-09-28T16:04:36.976Z,99409.44
2022-09-28T16:07:25.146Z,99410.69
2022-09-28T16:10:04.964Z,99406.94
2022-09-28T16:12:41.872Z,99408.59
2022-09-28T16:15:15.495Z,99416.78
2022-09-28T16:17:42.320Z,99414.88
2022-09-28T16:20:22.966Z,99420.09
2022-09-28T16:22:50.922Z,99418.19
2022-09-28T16:25:19.284Z,99424.47
2022-09-28T16:27:46.208Z,99420.88
2022-09-28T16:30:16.617Z,99434.66
2022-09-28T16:32:51.458Z,99435.69
2022-09-28T16:35:24.732Z,99432.50
2022-09-28T16:38:01.777Z,99434.53
2022-09-28T16:40:28.626Z,99440.16
2022-09-28T16:42:59.598Z,99434.91
2022-09-28T16:45:26.397Z,99438.44
2022-09-28T16:47:56.371Z,99434.44
2022-09-28T16:50:24.047Z,99444.88
2022-09-28T16:53:00.203Z,99449.25
2022-09-28T16:55:40.206Z,99450.88
2022-09-28T16:58:07.889Z,99449.78
2022-09-28T17:00:34.413Z,99452.06
2022-09-28T17:03:01.025Z,99453.94
2022-09-28T17:05:27.600Z,99452.25
2022-09-28T17:08:01.870Z,99449.78
2022-09-28T17:10:45.093Z,99457.25
2022-09-28T17:13:20.953Z,99460.38
2022-09-28T17:15:47.788Z,99460.97
2022-09-28T17:18:14.397Z,99463.88
2022-09-28T17:20:43.933Z,99457.16
2022-09-28T17:23:11.776Z,99455.91
2022-09-28T17:25:38.571Z,99471.50
2022-09-28T17:28:05.566Z,99462.94
2022-09-28T17:30:32.226Z,99470.44
2022-09-28T17:32:58.699Z,99475.22
2022-09-28T17:35:25.923Z,99472.91
2022-09-28T17:37:52.826Z,99477.69
2022-09-28T17:40:23.049Z,99477.25
2022-09-28T17:42:49.638Z,99477.47
2022-09-28T17:45:16.691Z,99483.25
2022-09-28T17:47:44.193Z,99490.75
2022-09-28T17:50:19.397Z,99481.34
2022-09-28T17:52:45.891Z,99483.59
2022-09-28T17:55:12.505Z,99489.41
2022-09-28T17:57:40.342Z,99486.88
2022-09-28T18:00:09.000Z,99492.50
2022-09-28T18:02:35.527Z,99491.84
2022-09-28T18:05:02.049Z,99486.84
2022-09-28T18:07:28.541Z,99492.44
2022-09-28T18:09:55.086Z,99498.06
2022-09-28T18:12:21.643Z,99495.53
2022-09-28T18:14:49.461Z,99494.91
2022-09-28T18:17:16.620Z,99499.69
2022-09-28T18:19:43.213Z,99501.72
2022-09-28T18:22:10.017Z,99502.97
2022-09-28T18:24:36.523Z,99504.22
2022-09-28T18:27:03.049Z,99503.56
2022-09-28T18:29:33.081Z,99512.06
2022-09-28T18:32:02.198Z,99506.97
2022-09-28T18:34:28.748Z,99510.75
2022-09-28T18:36:55.354Z,99518.22
2022-09-28T18:39:22.171Z,99517.59
2022-09-28T18:41:48.790Z,99514.22
2022-09-28T18:44:15.422Z,99519.81
2022-09-28T18:46:42.352Z,99518.34
2022-09-28T18:49:10.559Z,99517.69
2022-09-28T18:51:37.169Z,99528.91
2022-09-28T18:54:04.097Z,99529.13
2022-09-28T18:56:30.827Z,99531.34
2022-09-28T18:58:57.782Z,99539.88
2022-09-28T19:01:32.111Z,99539.22
2022-09-28T19:03:59.816Z,99534.16
2022-09-28T19:06:28.101Z,99536.25
2022-09-28T19:08:55.390Z,99539.31
2022-09-28T19:11:22.817Z,99538.69
2022-09-28T19:13:49.584Z,99541.56
2022-09-28T19:16:20.560Z,99549.91
2022-09-28T19:18:48.165Z,99547.53
2022-09-28T19:21:16.036Z,99551.28
2022-09-28T19:23:49.039Z,99553.34
2022-09-28T19:26:17.244Z,99557.47
2022-09-28T19:28:43.893Z,99556.78
2022-09-28T19:31:11.296Z,99561.38
2022-09-28T19:33:38.889Z,99563.25
2022-09-28T19:36:07.486Z,99558.03
2022-09-28T19:38:36.445Z,99560.91
2022-09-28T19:41:08.620Z,99564.47
2022-09-28T19:43:35.148Z,99560.91
2022-09-28T19:46:03.868Z,99559.22
2022-09-28T19:48:31.772Z,99562.13
2022-09-28T19:51:00.255Z,99566.72
2022-09-28T19:53:28.171Z,99565.88
2022-09-28T19:55:56.662Z,99573.34
2022-09-28T19:58:30.300Z,99566.25
2022-09-28T20:00:57.089Z,99567.44
2022-09-28T20:03:24.085Z,99571.19
2022-09-28T20:05:56.492Z,99571.19
2022-09-28T20:08:23.413Z,99575.78
2022-09-28T20:10:50.565Z,99576.63
2022-09-28T20:13:17.054Z,99580.34
2022-09-28T20:15:47.059Z,99582.19
2022-09-28T20:18:14.485Z,99584.91
2022-09-28T20:20:41.506Z,99588.63
2022-09-28T20:23:08.550Z,99593.22
2022-09-28T20:25:35.098Z,99591.56
2022-09-28T20:28:01.896Z,99595.06
2022-09-28T20:30:28.400Z,99593.41
2022-09-28T20:32:56.683Z,99608.81
2022-09-28T20:35:32.588Z,99608.81
2022-09-28T20:37:59.776Z,99604.41
2022-09-28T20:40:26.274Z,99612.72
2022-09-28T20:42:52.814Z,99611.84
2022-09-28T20:45:19.323Z,99615.63
2022-09-28T20:47:45.831Z,99612.25
2022-09-28T20:50:13.921Z,99617.00
2022-09-28T20:52:40.399Z,99616.16
2022-09-28T20:55:07.758Z,99620.06
2022-09-28T20:57:34.215Z,99615.72
2022-09-28T21:00:01.237Z,99622.97
2022-09-28T21:02:27.792Z,99630.25
2022-09-28T21:04:54.489Z,99625.84
2022-09-28T21:07:22.379Z,99633.97
2022-09-28T21:09:48.921Z,99631.28
2022-09-28T21:12:15.588Z,99639.38
2022-09-28T21:14:42.058Z,99635.00
2022-09-28T21:17:08.582Z,99643.13
2022-09-28T21:19:35.154Z,99646.66
2022-09-28T21:22:01.696Z,99642.09
2022-09-28T21:24:29.468Z,99644.81
2022-09-28T21:26:56.143Z,99644.13
2022-09-28T21:29:22.650Z,99649.53
2022-09-28T21:31:49.172Z,99652.44
2022-09-28T21:34:17.346Z,99652.44
2022-09-28T21:36:43.918Z,99649.91
2022-09-28T21:39:10.784Z,99651.59
2022-09-28T21:41:39.284Z,99652.44
2022-09-28T21:44:06.485Z,99659.56
2022-09-28T21:46:33.005Z,99662.06
2022-09-28T21:49:00.076Z,99663.06
2022-09-28T21:51:27.078Z,99661.03
2022-09-28T21:53:53.769Z,99663.75
2022-09-28T21:56:20.561Z,99661.03
2022-09-28T21:58:49.491Z,99667.13
2022-09-28T22:01:17.721Z,99667.13
2022-09-28T22:03:46.089Z,99667.94
2022-09-28T22:06:12.760Z,99668.78
2022-09-28T22:08:39.339Z,99672.53
2022-09-28T22:11:08.438Z,99675.25
2022-09-28T22:13:36.775Z,99670.00
2022-09-28T22:16:04.964Z,99672.88
2022-09-28T22:18:32.218Z,99668.31
2022-09-28T22:20:59.334Z,99662.06
2022-09-28T22:23:26.008Z,99663.75
2022-09-28T22:25:57.922Z,99663.75
2022-09-28T22:28:24.502Z,99667.66
2022-09-28T22:30:50.994Z,99665.78
2022-09-28T22:33:18.915Z,99667.47
2022-09-28T22:35:45.508Z,99667.47
2022-09-28T22:38:12.050Z,99672.88
2022-09-28T22:40:42.079Z,99663.06
2022-09-28T22:43:08.650Z,99665.78
2022-09-28T22:45:35.099Z,99670.16
2022-09-28T22:48:01.919Z,99671.00
2022-09-28T22:50:29.813Z,99676.25
2022-09-28T22:52:56.350Z,99681.00
2022-09-28T22:55:22.931Z,99678.28
2022-09-28T22:57:49.433Z,99687.41
2022-09-28T23:00:16.150Z,99681.19
2022-09-28T23:02:42.704Z,99679.13
2022-09-28T23:05:09.208Z,99676.59
2022-09-28T23:07:37.163Z,99684.53
2022-09-28T23:10:04.094Z,99684.53
2022-09-28T23:12:30.831Z,99683.69
2022-09-28T23:14:57.323Z,99687.41
2022-09-28T23:17:23.945Z,99682.69
2022-09-28T23:19:50.503Z,99684.53
2022-09-28T23:22:17.118Z,99690.13
2022-09-28T23:24:45.023Z,99691.19
2022-09-28T23:27:11.514Z,99690.31
2022-09-28T23:29:38.215Z,99694.91
2022-09-28T23:32:04.773Z,99691.50
2022-09-28T23:34:31.296Z,99688.16
2022-09-28T23:36:57.821Z,99692.72
2022-09-28T23:39:24.445Z,99692.56
2022-09-28T23:41:52.330Z,99683.59
2022-09-28T23:44:18.852Z,99684.44
2022-09-28T23:46:45.365Z,99686.31
2022-09-28T23:49:11.898Z,99684.44
2022-09-28T23:51:38.425Z,99682.59
2022-09-28T23:54:05.310Z,99684.44
2022-09-28T23:56:32.223Z,99688.81
2022-09-28T23:59:00.051Z,99685.28
